logo
Search for airport 
image banner adimage banner adimage banner ad
image banner ad

SQRO - El Rodeo

Located in , Colombia

ICAO - , IATA -

Data provided by Airmate  

General information

Coordinates: N4°45'15" W71°55'54"
Elevation is 493 feet MSL.
 
View others Airports in Casanare

Operational data

Special qualification required
Current time UTC:
Current local time:
Weather at : - ( 0 km )
METAR: CYQD 170138Z AUTO 29029G43KT 9SM -RA SCT015 SCT049 OVC060 10/07 A2920 RMK SLP895 DENSITY ALT 1300FT
View NOTAMs / SUP AIP / TFR affecting this airport [VIEW]
Communications frequencies: [VIEW]

Runways:

Airport contact information

Address: Colombia

Satellite view of SQRO